Time;durP1;ratioP1;P1;durP2;ratioP2;P2;SDS_P1;SDS_P2;PMS_P1;PMS_P2;Temp;Humidity;BMP_temperature;BMP_pressure;BME280_temperature;BME280_humidity;BME280_pressure;Samples;Min_cycle;Max_cycle;Signal;HPM_P1;HPM_P2
2023/01/14 10:27:31;;;;;;;9.83;3.17;;;;;;;10.09;76.94;98843.72;5129856;27;20520;-82
2023/01/14 10:30:41;;;;;;;4.80;1.63;;;;;;;10.35;74.89;98842.16;5112324;27;38871;-82
2023/01/14 10:33:50;;;;;;;5.73;1.63;;;;;;;10.49;74.01;98816.63;5111638;27;41911;-83
2023/01/14 10:36:38;;;;;;;5.70;2.37;;;;;;;10.60;72.12;98803.56;5128507;27;42271;-82
2023/01/14 10:39:26;;;;;;;7.13;1.90;;;;;;;10.93;71.96;98829.69;5111200;27;41198;-83
2023/01/14 10:41:54;;;;;;;6.20;1.70;;;;;;;10.64;71.19;98787.34;5111992;27;38871;-83
2023/01/14 10:44:25;;;;;;;7.37;2.57;;;;;;;10.68;70.42;98765.03;5111373;27;40738;-83
2023/01/14 10:46:57;;;;;;;4.67;1.77;;;;;;;10.94;70.44;98781.88;5112123;27;41688;-82
2023/01/14 10:49:37;;;;;;;6.07;1.50;;;;;;;11.24;70.28;98805.53;5111362;27;41016;-83
2023/01/14 10:52:23;;;;;;;5.73;1.53;;;;;;;11.35;69.60;98803.03;5112195;27;38489;-82
2023/01/14 10:54:59;;;;;;;4.23;1.27;;;;;;;11.49;69.89;98799.47;5128510;27;41903;-82
2023/01/14 10:57:30;;;;;;;6.43;1.83;;;;;;;11.71;68.57;98782.94;5111941;27;42054;-83
2023/01/14 11:00:00;;;;;;;5.33;1.60;;;;;;;11.80;67.44;98775.22;5144399;27;42311;-83
2023/01/14 11:02:37;;;;;;;6.73;1.97;;;;;;;11.96;66.83;98788.28;5128945;27;39841;-82
2023/01/14 11:05:07;;;;;;;4.27;1.63;;;;;;;11.98;66.84;98786.38;5128734;27;40508;-82
2023/01/14 11:07:38;;;;;;;4.73;1.60;;;;;;;11.97;66.76;98789.16;5111214;27;42674;-83
2023/01/14 11:10:18;;;;;;;5.90;1.67;;;;;;;11.89;66.71;98781.69;5128666;27;41352;-83
2023/01/14 11:12:46;;;;;;;5.17;1.67;;;;;;;11.95;67.28;98788.41;5111618;27;39070;-83
2023/01/14 11:15:35;;;;;;;3.87;2.07;;;;;;;11.93;67.33;98777.03;5128619;27;41607;-83
2023/01/14 11:18:32;;;;;;;4.77;1.60;;;;;;;11.97;67.17;98773.22;5111164;27;42820;-83
2023/01/14 11:21:15;;;;;;;6.33;1.50;;;;;;;11.91;67.10;98752.41;5128149;27;43067;-83
2023/01/14 11:23:45;;;;;;;4.80;1.47;;;;;;;11.93;67.21;98766.41;5128414;27;39277;-84
2023/01/14 11:26:24;;;;;;;3.40;1.60;;;;;;;11.90;66.61;98746.25;5106689;28;40885;-82
2023/01/14 11:28:54;;;;;;;3.47;1.40;;;;;;;11.84;66.39;98731.63;5097879;28;42193;-85
2023/01/14 11:31:32;;;;;;;4.47;1.40;;;;;;;11.85;65.97;98724.50;5114302;28;41312;-82
2023/01/14 11:34:00;;;;;;;5.30;1.77;;;;;;;12.08;66.38;98734.34;5097594;28;39027;-83
2023/01/14 11:36:32;;;;;;;7.40;1.57;;;;;;;12.09;65.72;98725.44;5097267;28;41364;-83
2023/01/14 11:39:02;;;;;;;6.77;1.27;;;;;;;12.00;65.78;98709.28;5123076;28;42825;-82
2023/01/14 11:41:37;;;;;;;3.87;1.30;;;;;;;12.06;66.09;98698.25;5132338;28;44103;-82
2023/01/14 11:44:17;;;;;;;3.30;1.30;;;;;;;11.94;65.71;98693.81;5130309;28;39707;-82
2023/01/14 11:47:02;;;;;;;2.77;1.50;;;;;;;12.00;65.93;98666.81;5114840;28;41240;-83
2023/01/14 11:49:30;;;;;;;4.80;1.67;;;;;;;12.04;65.77;98657.69;5114849;28;42654;-83
2023/01/14 11:52:00;;;;;;;4.60;1.30;;;;;;;12.16;65.62;98673.59;5128561;28;41171;-81
2023/01/14 11:54:52;;;;;;;4.60;1.80;;;;;;;12.05;65.42;98644.31;5115140;28;38967;-84
2023/01/14 11:57:22;;;;;;;4.30;1.30;;;;;;;12.17;65.02;98650.56;5098393;28;41545;-82
2023/01/14 11:59:52;;;;;;;3.30;1.50;;;;;;;12.17;65.20;98647.88;5098703;28;41145;-84
2023/01/14 12:02:27;;;;;;;2.97;1.00;;;;;;;12.32;65.20;98649.44;5097875;28;42741;-82
2023/01/14 12:05:01;;;;;;;2.97;1.30;;;;;;;12.38;65.54;98641.00;5112616;28;40981;-85
2023/01/14 12:07:34;;;;;;;4.60;1.47;;;;;;;12.33;65.21;98631.72;5097170;28;40947;-83
2023/01/14 12:10:05;;;;;;;3.70;1.50;;;;;;;12.28;64.50;98612.59;5096793;28;42012;-85
2023/01/14 12:16:48;;;;;;;4.03;1.40;;;;;;;12.39;64.71;98621.47;5110579;28;43006;-82
2023/01/14 12:18:43;;;;;;;3.10;1.20;;;;;;;12.47;64.58;98592.56;5039041;28;41007;-84
2023/01/14 12:21:16;;;;;;;2.30;1.10;;;;;;;12.45;64.22;98575.88;5038590;28;42058;-86
2023/01/14 12:23:51;;;;;;;3.73;1.60;;;;;;;12.36;64.76;98573.06;5068591;28;41064;-83
2023/01/14 12:26:25;;;;;;;2.70;1.00;;;;;;;12.42;64.68;98569.94;5130493;27;39943;-83
2023/01/14 12:28:58;;;;;;;1.47;0.83;;;;;;;12.30;65.01;98542.50;5110746;28;42587;-85
2023/01/14 12:31:33;;;;;;;2.80;1.07;;;;;;;12.38;65.36;98544.56;5113817;28;41799;-85
2023/01/14 12:34:21;;;;;;;5.87;1.40;;;;;;;12.40;65.22;98532.03;5096620;28;42209;-85
2023/01/14 12:36:53;;;;;;;3.30;1.10;;;;;;;12.31;64.86;98507.00;5097047;28;39687;-83
2023/01/14 12:48:08;;;;;;;2.40;0.90;;;;;;;12.05;65.34;98465.63;5096273;28;38971;-85
2023/01/14 12:50:46;;;;;;;1.23;0.83;;;;;;;12.04;65.62;98467.44;5113473;28;40992;-83
2023/01/14 12:53:19;;;;;;;1.63;0.93;;;;;;;11.94;65.68;98449.69;5095937;28;42191;-84
2023/01/14 12:55:50;;;;;;;2.40;1.17;;;;;;;12.00;65.80;98454.50;5113808;28;41020;-85
2023/01/14 12:58:24;;;;;;;2.93;1.17;;;;;;;11.98;65.61;98462.63;5095717;28;39810;-83
2023/01/14 13:00:55;;;;;;;3.40;1.10;;;;;;;11.89;65.89;98447.34;5113674;28;40688;-85
2023/01/14 13:03:27;;;;;;;2.13;1.20;;;;;;;11.77;66.16;98411.13;5110139;28;42848;-83
2023/01/14 13:05:57;;;;;;;1.40;0.90;;;;;;;11.75;66.69;98405.94;5096189;28;41079;-85
2023/01/14 13:08:30;;;;;;;2.73;1.67;;;;;;;11.71;67.11;98393.00;5095674;28;40898;-81
2023/01/14 13:11:02;;;;;;;1.67;1.00;;;;;;;11.83;66.94;98410.69;5096370;28;41907;-82
2023/01/14 13:13:31;;;;;;;3.57;1.10;;;;;;;11.73;66.71;98353.94;5095548;28;43128;-84
2023/01/14 13:16:02;;;;;;;2.10;1.00;;;;;;;11.64;67.04;98347.50;5095885;28;42517;-84
2023/01/14 13:18:45;;;;;;;2.13;1.20;;;;;;;11.68;67.17;98367.53;5112693;28;40052;-83
2023/01/14 13:21:52;;;;;;;2.17;0.83;;;;;;;11.63;67.40;98368.81;5112856;28;40842;-83
2023/01/14 13:24:33;;;;;;;3.47;1.07;;;;;;;11.50;67.49;98360.94;5112575;28;42591;-84
2023/01/14 13:27:02;;;;;;;1.83;0.80;;;;;;;11.48;67.43;98368.19;5112809;28;41420;-82
2023/01/14 13:29:32;;;;;;;3.27;1.20;;;;;;;11.48;67.95;98362.88;5112444;28;38986;-85
2023/01/14 13:32:01;;;;;;;2.00;1.00;;;;;;;11.40;67.90;98344.03;5095726;28;41982;-85
2023/01/14 13:34:39;;;;;;;1.97;0.90;;;;;;;11.37;67.94;98338.97;5112178;28;43237;-83
2023/01/14 13:37:27;;;;;;;1.57;0.77;;;;;;;11.56;68.30;98370.25;5095610;28;42456;-83
2023/01/14 13:39:56;;;;;;;2.40;1.00;;;;;;;11.54;68.22;98359.75;5095731;28;39864;-83
2023/01/14 13:42:31;;;;;;;2.77;0.90;;;;;;;11.44;67.90;98346.34;5095391;28;40500;-83
2023/01/14 13:45:00;;;;;;;2.50;1.00;;;;;;;11.44;67.91;98340.19;5095244;28;42389;-85
2023/01/14 13:47:34;;;;;;;1.67;1.23;;;;;;;11.52;68.29;98353.72;5095177;28;42188;-82
2023/01/14 13:50:06;;;;;;;2.20;1.30;;;;;;;11.48;68.00;98352.28;5112170;28;39134;-87
2023/01/14 13:52:49;;;;;;;2.23;1.10;;;;;;;11.43;68.10;98347.31;5113429;28;40930;-84
2023/01/14 13:55:22;;;;;;;2.30;1.20;;;;;;;11.33;68.55;98310.97;5114007;28;43002;-84
2023/01/14 13:57:52;;;;;;;3.60;1.30;;;;;;;11.31;68.65;98305.78;5112388;28;41184;-82
2023/01/14 14:00:37;;;;;;;1.33;1.10;;;;;;;11.27;68.57;98295.53;5095097;28;39159;-81
2023/01/14 14:03:39;;;;;;;2.27;1.20;;;;;;;11.30;70.22;98313.84;5127942;27;42355;-83
2023/01/14 14:06:45;;;;;;;3.33;1.27;;;;;;;11.12;72.64;98287.78;5096855;28;41413;-83
2023/01/14 14:09:22;;;;;;;2.17;1.10;;;;;;;10.93;74.28;98284.75;5095552;28;42827;-86
2023/01/14 14:11:59;;;;;;;3.13;1.37;;;;;;;10.70;75.26;98269.69;5112174;28;39218;-85
2023/01/14 14:14:30;;;;;;;1.80;0.80;;;;;;;10.71;76.47;98292.56;5095177;28;42203;-85
2023/01/14 14:17:01;;;;;;;2.40;0.87;;;;;;;10.66;76.87;98295.53;5094937;28;44449;-84
2023/01/14 14:19:33;;;;;;;2.27;1.37;;;;;;;10.62;78.36;98293.25;5094554;28;42291;-85
2023/01/14 14:22:06;;;;;;;2.90;1.00;;;;;;;10.49;78.61;98279.19;5112157;28;40158;-84
2023/01/14 14:24:44;;;;;;;2.00;1.10;;;;;;;10.49;79.38;98287.97;5110336;28;41557;-83
2023/01/14 14:27:16;;;;;;;4.07;1.33;;;;;;;10.42;80.12;98270.81;5094832;28;44429;-84
2023/01/14 14:29:46;;;;;;;1.50;1.17;;;;;;;10.32;81.38;98264.50;5095150;28;41325;-83
2023/01/14 14:32:16;;;;;;;3.30;1.27;;;;;;;10.25;82.23;98258.81;5094603;28;38692;-83
2023/01/14 14:34:44;;;;;;;2.60;1.20;;;;;;;10.07;83.78;98244.19;5094156;28;41151;-84
2023/01/14 14:37:20;;;;;;;2.17;1.10;;;;;;;10.01;84.57;98247.28;5094848;28;41859;-83
2023/01/14 14:39:54;;;;;;;3.37;1.07;;;;;;;9.95;84.83;98245.88;5094511;28;41536;-82
2023/01/14 14:42:26;;;;;;;1.57;1.27;;;;;;;9.97;85.08;98248.44;5094942;28;39103;-83
2023/01/14 14:44:56;;;;;;;2.53;1.20;;;;;;;9.91;86.66;98238.25;5094665;28;40639;-82
2023/01/14 14:47:25;;;;;;;2.73;1.23;;;;;;;9.94;86.73;98235.41;5094213;28;43081;-86
2023/01/14 14:49:53;;;;;;;1.60;1.20;;;;;;;9.66;86.62;98187.06;5094299;28;41516;-85
2023/01/14 14:52:21;;;;;;;2.13;0.93;;;;;;;9.86;86.67;98229.81;5094644;28;38880;-82
2023/01/14 14:54:51;;;;;;;2.60;1.13;;;;;;;9.85;86.75;98236.06;5111304;28;40959;-82
2023/01/14 14:57:25;;;;;;;1.47;1.10;;;;;;;9.75;87.97;98216.50;5094536;28;41851;-83
2023/01/14 15:00:01;;;;;;;2.93;1.27;;;;;;;9.48;87.79;98167.22;5094717;28;41454;-82
2023/01/14 15:02:35;;;;;;;1.23;1.13;;;;;;;9.61;88.14;98191.84;5096359;28;39076;-82
2023/01/14 15:05:05;;;;;;;2.00;1.30;;;;;;;9.67;89.22;98203.78;5097833;28;40873;-81
2023/01/14 15:07:37;;;;;;;2.40;1.40;;;;;;;9.55;89.03;98181.69;5132550;27;43096;-82
2023/01/14 15:10:07;;;;;;;2.73;0.93;;;;;;;9.59;89.46;98196.41;5114599;28;42360;-82
2023/01/14 15:12:41;;;;;;;1.70;1.13;;;;;;;9.34;90.10;98151.47;5098427;28;39346;-83
2023/01/14 15:15:19;;;;;;;1.23;0.90;;;;;;;9.49;90.59;98168.91;5114411;28;41752;-81
2023/01/14 15:17:49;;;;;;;2.43;1.30;;;;;;;9.32;90.87;98150.72;5114219;28;42919;-81
2023/01/14 15:20:19;;;;;;;1.57;1.10;;;;;;;9.27;91.35;98145.75;5097430;28;41289;-80
2023/01/14 15:22:49;;;;;;;2.27;1.20;;;;;;;9.00;91.55;98097.47;5111694;28;40112;-81
2023/01/14 15:25:20;;;;;;;3.07;1.00;;;;;;;9.26;92.80;98136.16;5096749;28;40725;-82
2023/01/14 15:27:50;;;;;;;1.87;0.87;;;;;;;9.22;92.72;98136.47;5114341;28;43015;-81
2023/01/14 15:30:25;;;;;;;1.43;1.00;;;;;;;9.02;93.22;98105.28;5097215;28;41066;-79
2023/01/14 15:32:55;;;;;;;0.97;0.83;;;;;;;9.14;93.33;98120.28;5096987;28;39215;-80
2023/01/14 15:35:27;;;;;;;1.67;0.80;;;;;;;9.18;93.92;98124.41;5097066;28;40758;-80
2023/01/14 15:37:57;;;;;;;1.33;0.83;;;;;;;9.06;94.10;98101.47;5113986;28;43030;-80
2023/01/14 15:40:30;;;;;;;1.00;0.90;;;;;;;9.07;94.19;98108.44;5114057;28;42948;-81
2023/01/14 15:43:03;;;;;;;4.63;1.10;;;;;;;8.90;94.36;98091.13;5111165;28;39957;-82
2023/01/14 15:45:31;;;;;;;2.70;1.23;;;;;;;9.06;94.14;98109.38;5097408;28;40525;-81
